createdAt,value
2018-08-22T00:01:59.347Z,13.23
2018-08-22T00:04:28.069Z,13.47
2018-08-22T00:06:56.804Z,14.87
2018-08-22T00:09:25.578Z,13.07
2018-08-22T00:11:54.226Z,11.87
2018-08-22T00:14:23.768Z,11.57
2018-08-22T00:16:52.424Z,10.53
2018-08-22T00:19:21.156Z,10.70
2018-08-22T00:21:49.728Z,11.17
2018-08-22T00:24:18.352Z,11.37
2018-08-22T00:26:47.322Z,8.70
2018-08-22T00:29:16.181Z,10.73
2018-08-22T00:31:45.808Z,11.90
2018-08-22T00:34:14.388Z,14.23
2018-08-22T00:36:43.126Z,11.20
2018-08-22T00:39:12.940Z,11.70
2018-08-22T00:41:41.564Z,10.83
2018-08-22T00:44:10.292Z,11.13
2018-08-22T00:46:38.889Z,16.37
2018-08-22T00:49:07.633Z,12.17
2018-08-22T00:51:36.357Z,10.70
2018-08-22T00:54:04.957Z,11.10
2018-08-22T00:56:33.531Z,13.47
2018-08-22T00:59:02.196Z,12.00
2018-08-22T01:01:30.786Z,12.40
2018-08-22T01:03:59.886Z,10.67
2018-08-22T01:06:28.584Z,10.80
2018-08-22T01:08:58.185Z,13.13
2018-08-22T01:11:26.976Z,12.57
2018-08-22T01:13:55.946Z,13.33
2018-08-22T01:16:24.676Z,9.43
2018-08-22T01:18:53.597Z,10.87
2018-08-22T01:21:22.195Z,12.30
2018-08-22T01:23:51.097Z,11.90
2018-08-22T01:26:19.796Z,9.73
2018-08-22T01:28:48.358Z,8.67
2018-08-22T01:31:17.015Z,12.43
2018-08-22T01:33:45.623Z,10.57
2018-08-22T01:36:14.449Z,13.87
2018-08-22T01:38:44.338Z,15.10
2018-08-22T01:41:13.017Z,11.83
2018-08-22T01:43:41.796Z,11.00
2018-08-22T01:46:10.505Z,11.57
2018-08-22T01:48:40.000Z,10.90
2018-08-22T01:51:08.637Z,11.03
2018-08-22T01:53:37.205Z,14.80
2018-08-22T01:56:06.012Z,13.73
2018-08-22T01:58:34.653Z,10.53
2018-08-22T02:01:03.352Z,13.93
2018-08-22T02:03:32.232Z,12.33
2018-08-22T02:06:01.088Z,12.33
2018-08-22T02:08:29.717Z,13.87
2018-08-22T02:10:58.423Z,12.75
2018-08-22T02:13:27.121Z,12.83
2018-08-22T02:15:56.129Z,12.13
2018-08-22T02:18:24.709Z,14.17
2018-08-22T02:20:53.304Z,9.90
2018-08-22T02:23:22.492Z,13.83
2018-08-22T02:25:51.178Z,11.87
2018-08-22T02:28:19.842Z,9.77
2018-08-22T02:30:48.702Z,9.43
2018-08-22T02:33:17.452Z,11.60
2018-08-22T02:35:46.953Z,9.73
2018-08-22T02:38:20.696Z,10.33
2018-08-22T02:40:49.265Z,10.40
2018-08-22T02:43:18.600Z,9.40
2018-08-22T02:45:47.656Z,9.07
2018-08-22T02:48:16.784Z,9.73
2018-08-22T02:50:45.361Z,9.90
2018-08-22T02:53:14.036Z,10.40
2018-08-22T02:55:43.256Z,11.00
2018-08-22T02:58:12.960Z,13.03
2018-08-22T03:00:41.648Z,11.13
2018-08-22T03:03:10.256Z,11.80
2018-08-22T03:05:38.831Z,11.77
2018-08-22T03:08:07.665Z,11.63
2018-08-22T03:10:36.292Z,11.70
2018-08-22T03:13:04.892Z,8.60
2018-08-22T03:15:34.282Z,10.03
2018-08-22T03:18:03.575Z,9.70
2018-08-22T03:20:32.254Z,9.60
2018-08-22T03:23:00.934Z,8.77
2018-08-22T03:25:29.469Z,7.90
2018-08-22T03:27:58.197Z,9.00
2018-08-22T03:30:26.833Z,11.13
2018-08-22T03:32:56.589Z,9.80
2018-08-22T03:35:25.270Z,7.77
2018-08-22T03:37:53.873Z,8.47
2018-08-22T03:40:22.528Z,7.93
2018-08-22T03:42:51.090Z,11.50
2018-08-22T03:45:19.759Z,13.87
2018-08-22T03:47:48.320Z,12.20
2018-08-22T03:50:16.966Z,12.60
2018-08-22T03:52:45.669Z,12.60
2018-08-22T03:55:14.350Z,16.97
2018-08-22T03:57:42.973Z,15.10
2018-08-22T04:00:12.318Z,12.20
2018-08-22T04:02:41.370Z,14.93
2018-08-22T04:05:10.084Z,17.97
2018-08-22T04:07:38.669Z,12.80
2018-08-22T04:10:07.260Z,12.63
2018-08-22T04:12:36.108Z,14.57
2018-08-22T04:15:04.832Z,11.43
2018-08-22T04:17:37.603Z,10.53
2018-08-22T04:20:06.899Z,9.03
2018-08-22T04:22:37.325Z,9.50
2018-08-22T04:25:06.157Z,11.87
2018-08-22T04:27:34.814Z,9.03
2018-08-22T04:30:03.601Z,11.00
2018-08-22T04:32:32.211Z,8.43
2018-08-22T04:35:00.872Z,9.03
2018-08-22T04:37:29.588Z,11.67
2018-08-22T04:39:58.453Z,12.23
2018-08-22T04:42:27.630Z,12.17
2018-08-22T04:44:56.447Z,16.33
2018-08-22T04:47:25.133Z,19.13
2018-08-22T04:49:53.849Z,31.13
2018-08-22T04:52:22.544Z,52.77
2018-08-22T04:54:51.410Z,52.57
2018-08-22T04:57:21.390Z,72.17
2018-08-22T04:59:49.968Z,42.03
2018-08-22T05:02:18.567Z,30.27
2018-08-22T05:04:51.116Z,24.30
2018-08-22T05:07:19.715Z,26.93
2018-08-22T05:09:48.526Z,23.77
2018-08-22T05:12:17.277Z,22.70
2018-08-22T05:14:45.965Z,17.80
2018-08-22T05:17:14.788Z,16.03
2018-08-22T05:19:43.446Z,22.67
2018-08-22T05:22:12.376Z,15.60
2018-08-22T05:24:43.136Z,18.53
2018-08-22T05:27:11.698Z,16.37
2018-08-22T05:29:40.261Z,26.20
2018-08-22T05:32:08.978Z,20.27
2018-08-22T05:34:37.565Z,21.10
2018-08-22T05:37:06.314Z,22.17
2018-08-22T05:39:36.033Z,22.20
2018-08-22T05:42:04.780Z,20.03
2018-08-22T05:44:33.381Z,20.83
2018-08-22T05:47:02.117Z,20.20
2018-08-22T05:49:30.765Z,14.20
2018-08-22T05:51:59.419Z,16.80
2018-08-22T05:54:28.129Z,20.83
2018-08-22T05:56:56.905Z,18.43
2018-08-22T05:59:26.583Z,16.20
2018-08-22T06:01:55.189Z,18.27
2018-08-22T06:04:23.869Z,14.43
2018-08-22T06:06:52.615Z,13.20
2018-08-22T06:09:21.353Z,15.00
2018-08-22T06:11:49.975Z,11.40
2018-08-22T06:14:18.572Z,18.10
2018-08-22T06:16:47.328Z,14.47
2018-08-22T06:19:16.016Z,10.50
2018-08-22T06:21:44.676Z,13.63
2018-08-22T06:24:13.349Z,14.30
2018-08-22T06:26:41.995Z,10.23
2018-08-22T06:29:10.577Z,11.63
2018-08-22T06:31:39.302Z,10.97
2018-08-22T06:34:07.955Z,9.13
2018-08-22T06:36:36.557Z,9.77
2018-08-22T06:39:08.423Z,11.43
2018-08-22T06:41:37.005Z,12.40
2018-08-22T06:44:05.667Z,12.83
2018-08-22T06:46:34.285Z,10.13
2018-08-22T06:49:02.889Z,7.47
2018-08-22T06:51:31.450Z,9.23
2018-08-22T06:54:00.122Z,11.17
2018-08-22T06:56:28.717Z,12.90
2018-08-22T06:58:57.375Z,22.47
2018-08-22T07:01:26.015Z,14.87
2018-08-22T07:03:54.604Z,9.40
2018-08-22T07:06:23.185Z,10.20
2018-08-22T07:08:51.877Z,13.80
2018-08-22T07:11:20.545Z,11.43
2018-08-22T07:13:49.148Z,10.03
2018-08-22T07:16:17.753Z,9.87
2018-08-22T07:18:46.550Z,10.70
2018-08-22T07:21:15.150Z,9.57
2018-08-22T07:23:43.845Z,11.90
2018-08-22T07:26:12.498Z,8.13
2018-08-22T07:28:41.428Z,10.53
2018-08-22T07:31:09.988Z,22.40
2018-08-22T07:33:40.681Z,16.43
2018-08-22T07:36:09.381Z,9.23
2018-08-22T07:38:38.097Z,12.97
2018-08-22T07:41:06.688Z,6.87
2018-08-22T07:43:35.377Z,10.13
2018-08-22T07:46:04.060Z,4.87
2018-08-22T07:48:32.650Z,7.90
2018-08-22T07:51:01.383Z,8.93
2018-08-22T07:53:30.076Z,7.17
2018-08-22T07:55:58.698Z,8.83
2018-08-22T07:58:27.332Z,8.10
2018-08-22T08:00:56.228Z,6.33
2018-08-22T08:03:24.920Z,10.13
2018-08-22T08:05:53.553Z,6.00
2018-08-22T08:08:22.198Z,5.93
2018-08-22T08:10:51.499Z,11.97
2018-08-22T08:13:29.797Z,8.40
2018-08-22T08:15:59.405Z,10.40
2018-08-22T08:18:28.228Z,6.17
2018-08-22T08:20:56.772Z,8.63
2018-08-22T08:23:25.369Z,5.03
2018-08-22T08:25:53.970Z,4.67
2018-08-22T08:28:23.280Z,7.53
2018-08-22T08:30:52.266Z,8.80
2018-08-22T08:33:21.108Z,5.00
2018-08-22T08:35:49.749Z,7.13
2018-08-22T08:38:18.720Z,3.50
2018-08-22T08:40:48.140Z,5.73
2018-08-22T08:43:17.331Z,7.10
2018-08-22T08:45:46.024Z,3.60
2018-08-22T08:48:14.768Z,4.53
2018-08-22T08:50:43.494Z,6.73
2018-08-22T08:53:12.126Z,10.77
2018-08-22T08:55:41.838Z,5.10
2018-08-22T08:58:10.402Z,3.50
2018-08-22T09:00:39.014Z,8.33
2018-08-22T09:03:07.597Z,4.80
2018-08-22T09:05:36.180Z,7.30
2018-08-22T09:08:04.917Z,6.37
2018-08-22T09:10:33.733Z,2.50
2018-08-22T09:13:02.490Z,7.47
2018-08-22T09:15:31.145Z,5.47
2018-08-22T09:17:59.965Z,3.87
2018-08-22T09:20:28.963Z,5.23
2018-08-22T09:22:57.605Z,5.07
2018-08-22T09:25:26.306Z,5.73
2018-08-22T09:27:54.988Z,5.10
2018-08-22T09:30:23.907Z,4.70
2018-08-22T09:32:52.500Z,5.47
2018-08-22T09:35:21.264Z,4.90
2018-08-22T09:37:50.995Z,3.93
2018-08-22T09:40:19.670Z,35.03
2018-08-22T09:42:48.558Z,4.07
2018-08-22T09:45:17.163Z,6.17
2018-08-22T09:47:45.862Z,2.23
2018-08-22T09:50:14.633Z,3.90
2018-08-22T09:52:43.380Z,4.60
2018-08-22T09:55:12.651Z,3.10
2018-08-22T09:57:41.457Z,3.20
2018-08-22T10:00:15.352Z,5.03
2018-08-22T10:02:44.969Z,2.57
2018-08-22T10:05:13.560Z,5.50
2018-08-22T10:07:42.201Z,2.83
2018-08-22T10:10:11.018Z,5.83
2018-08-22T10:12:39.711Z,5.90
2018-08-22T10:15:08.384Z,4.03
2018-08-22T10:17:37.086Z,6.57
2018-08-22T10:20:06.381Z,5.40
2018-08-22T10:22:35.168Z,10.43
2018-08-22T10:25:03.917Z,4.60
2018-08-22T10:27:32.565Z,3.40
2018-08-22T10:30:01.282Z,3.53
2018-08-22T10:32:29.851Z,4.07
2018-08-22T10:34:58.620Z,8.43
2018-08-22T10:37:27.442Z,5.30
2018-08-22T10:39:56.257Z,7.47
2018-08-22T10:42:24.907Z,5.27
2018-08-22T10:44:54.660Z,7.07
2018-08-22T10:47:23.301Z,9.13
2018-08-22T10:49:53.047Z,11.33
2018-08-22T10:52:21.705Z,3.57
2018-08-22T10:54:50.247Z,5.20
2018-08-22T10:57:19.047Z,5.37
2018-08-22T10:59:48.296Z,17.27
2018-08-22T11:02:17.016Z,4.30
2018-08-22T11:04:45.665Z,14.17
2018-08-22T11:07:14.369Z,5.50
2018-08-22T11:09:43.055Z,6.17
2018-08-22T11:12:11.655Z,3.07
2018-08-22T11:14:40.426Z,9.40
2018-08-22T11:17:09.115Z,3.17
2018-08-22T11:19:37.811Z,3.77
2018-08-22T11:22:17.816Z,5.93
2018-08-22T11:24:57.745Z,4.13
2018-08-22T11:27:37.553Z,4.47
2018-08-22T11:30:17.416Z,5.40
2018-08-22T11:32:57.321Z,2.57
2018-08-22T11:35:24.949Z,3.57
2018-08-22T11:37:53.529Z,2.98
2018-08-22T11:40:22.656Z,8.08
2018-08-22T11:42:51.421Z,6.42
2018-08-22T11:45:20.921Z,4.47
2018-08-22T11:47:49.742Z,7.30
2018-08-22T11:50:18.309Z,3.45
2018-08-22T11:52:46.945Z,4.00
2018-08-22T11:55:15.646Z,5.87
2018-08-22T11:57:44.914Z,4.92
2018-08-22T12:00:14.500Z,3.70
2018-08-22T12:02:43.263Z,5.50
2018-08-22T12:05:11.961Z,5.47
2018-08-22T12:07:41.482Z,3.55
2018-08-22T12:10:10.171Z,5.85
2018-08-22T12:12:38.961Z,4.55
2018-08-22T12:15:07.733Z,6.70
2018-08-22T12:17:37.121Z,3.25
2018-08-22T12:20:07.233Z,3.17
2018-08-22T12:22:36.101Z,4.40
2018-08-22T12:25:04.865Z,4.03
2018-08-22T12:27:33.539Z,5.35
2018-08-22T12:30:02.273Z,5.10
2018-08-22T12:32:30.963Z,3.95
2018-08-22T12:35:00.460Z,7.37
2018-08-22T12:37:29.116Z,3.52
2018-08-22T12:39:57.964Z,2.80
2018-08-22T12:42:26.855Z,4.95
2018-08-22T12:44:55.505Z,3.37
2018-08-22T12:47:25.254Z,3.90
2018-08-22T12:49:53.975Z,8.08
2018-08-22T12:52:23.645Z,8.23
2018-08-22T12:54:52.323Z,6.12
2018-08-22T12:57:22.807Z,4.22
2018-08-22T12:59:51.504Z,3.87
2018-08-22T13:02:20.113Z,4.92
2018-08-22T13:04:48.781Z,3.40
2018-08-22T13:07:17.478Z,4.30
2018-08-22T13:09:46.680Z,5.28
2018-08-22T13:12:15.485Z,6.37
2018-08-22T13:14:44.100Z,5.40
2018-08-22T13:17:12.986Z,2.80
2018-08-22T13:19:41.581Z,2.50
2018-08-22T13:22:11.388Z,4.95
2018-08-22T13:24:40.135Z,5.70
2018-08-22T13:27:08.781Z,2.90
2018-08-22T13:29:37.376Z,3.05
2018-08-22T13:32:06.771Z,2.77
2018-08-22T13:34:36.377Z,2.80
2018-08-22T13:37:05.778Z,5.72
2018-08-22T13:39:34.484Z,6.37
2018-08-22T13:42:05.963Z,3.60
2018-08-22T13:44:34.713Z,2.83
2018-08-22T13:47:03.410Z,5.15
2018-08-22T13:49:32.082Z,2.45
2018-08-22T13:52:00.806Z,5.22
2018-08-22T13:54:29.686Z,3.30
2018-08-22T13:56:58.410Z,3.05
2018-08-22T13:59:27.050Z,2.72
2018-08-22T14:01:55.795Z,4.45
2018-08-22T14:04:25.386Z,4.62
2018-08-22T14:06:54.065Z,4.83
2018-08-22T14:09:22.796Z,3.98
2018-08-22T14:11:51.464Z,4.03
2018-08-22T14:14:20.246Z,5.87
2018-08-22T14:16:49.081Z,3.80
2018-08-22T14:19:17.736Z,3.45
2018-08-22T14:21:46.633Z,3.17
2018-08-22T14:24:15.335Z,5.60
2018-08-22T14:26:44.143Z,5.87
2018-08-22T14:29:12.705Z,2.77
2018-08-22T14:31:41.589Z,6.62
2018-08-22T14:34:11.545Z,3.72
2018-08-22T14:36:40.101Z,3.70
2018-08-22T14:39:11.095Z,3.70
2018-08-22T14:41:39.694Z,8.35
2018-08-22T14:44:08.492Z,6.78
2018-08-22T14:46:37.633Z,4.58
2018-08-22T14:49:06.533Z,3.58
2018-08-22T14:51:36.456Z,2.25
2018-08-22T14:54:05.165Z,4.92
2018-08-22T14:56:33.868Z,3.50
2018-08-22T14:59:02.689Z,4.80
2018-08-22T15:01:31.401Z,3.52
2018-08-22T15:04:00.060Z,4.58
2018-08-22T15:06:30.721Z,4.55
2018-08-22T15:09:05.728Z,4.10
2018-08-22T15:11:36.005Z,3.98
2018-08-22T15:14:05.773Z,3.62
2018-08-22T15:16:34.445Z,4.05
2018-08-22T15:19:03.077Z,3.58
2018-08-22T15:21:31.768Z,2.85
2018-08-22T15:24:00.501Z,2.72
2018-08-22T15:26:29.327Z,2.92
2018-08-22T15:28:58.082Z,3.20
2018-08-22T15:31:26.721Z,5.08
2018-08-22T15:33:55.674Z,3.60
2018-08-22T15:36:24.539Z,3.45
2018-08-22T15:38:55.383Z,3.62
2018-08-22T15:41:24.014Z,4.92
2018-08-22T15:43:53.306Z,5.65
2018-08-22T15:46:22.032Z,3.40
2018-08-22T15:48:52.084Z,2.67
2018-08-22T15:51:20.748Z,4.10
2018-08-22T15:54:14.128Z,3.20
2018-08-22T15:56:43.097Z,5.00
2018-08-22T15:59:12.594Z,5.47
2018-08-22T16:01:41.346Z,4.60
2018-08-22T16:04:10.558Z,4.83
2018-08-22T16:06:39.420Z,6.05
2018-08-22T16:09:16.113Z,5.67
2018-08-22T16:11:45.809Z,6.72
2018-08-22T16:14:15.079Z,4.58
2018-08-22T16:16:43.924Z,6.55
2018-08-22T16:19:13.286Z,7.78
2018-08-22T16:21:42.473Z,3.83
2018-08-22T16:24:11.395Z,4.40
2018-08-22T16:26:40.616Z,4.83
2018-08-22T16:29:09.377Z,3.55
2018-08-22T16:31:44.422Z,4.92
2018-08-22T16:34:13.763Z,3.65
2018-08-22T16:36:42.733Z,4.33
2018-08-22T16:39:11.732Z,5.80
2018-08-22T16:41:40.390Z,10.85
2018-08-22T16:44:10.241Z,13.95
2018-08-22T16:46:38.891Z,6.15
2018-08-22T16:49:08.993Z,8.90
2018-08-22T16:51:37.768Z,10.00
2018-08-22T16:54:10.306Z,13.80
2018-08-22T16:56:39.411Z,13.30
2018-08-22T16:59:10.293Z,15.75
2018-08-22T17:01:40.701Z,9.83
2018-08-22T17:04:09.324Z,4.37
2018-08-22T17:06:38.053Z,7.57
2018-08-22T17:09:09.421Z,5.90
2018-08-22T17:11:38.135Z,13.80
2018-08-22T17:14:06.779Z,8.87
2018-08-22T17:16:35.469Z,6.47
2018-08-22T17:19:04.313Z,3.97
2018-08-22T17:21:33.102Z,9.43
2018-08-22T17:24:01.910Z,3.97
2018-08-22T17:26:31.352Z,4.00
2018-08-22T17:29:00.874Z,11.33
2018-08-22T17:31:30.501Z,5.67
2018-08-22T17:34:01.542Z,5.03
2018-08-22T17:36:30.122Z,6.80
2018-08-22T17:38:59.890Z,11.20
2018-08-22T17:41:30.049Z,9.23
2018-08-22T17:44:04.305Z,9.67
2018-08-22T17:46:37.159Z,5.20
2018-08-22T17:49:05.973Z,12.53
2018-08-22T17:51:44.435Z,12.13
2018-08-22T17:54:13.133Z,6.77
2018-08-22T17:56:42.565Z,12.17
2018-08-22T17:59:11.373Z,16.37
2018-08-22T18:01:40.084Z,15.90
2018-08-22T18:04:08.824Z,10.30
2018-08-22T18:06:37.513Z,11.70
2018-08-22T18:09:06.517Z,18.50
2018-08-22T18:11:35.093Z,21.73
2018-08-22T18:14:03.826Z,19.77
2018-08-22T18:16:32.481Z,10.63
2018-08-22T18:19:02.106Z,10.53
2018-08-22T18:21:38.883Z,10.47
2018-08-22T18:24:08.593Z,8.53
2018-08-22T18:26:37.254Z,8.83
2018-08-22T18:29:05.936Z,11.07
2018-08-22T18:31:35.835Z,11.70
2018-08-22T18:34:05.029Z,13.53
2018-08-22T18:36:33.670Z,8.63
2018-08-22T18:39:07.044Z,9.97
2018-08-22T18:41:35.980Z,9.27
2018-08-22T18:44:04.776Z,9.47
2018-08-22T18:46:33.501Z,11.27
2018-08-22T18:49:02.880Z,11.77
2018-08-22T18:51:33.753Z,11.53
2018-08-22T18:54:04.173Z,11.23
2018-08-22T18:56:32.784Z,13.63
2018-08-22T18:59:12.552Z,7.70
2018-08-22T19:01:41.492Z,7.17
2018-08-22T19:04:10.296Z,10.70
2018-08-22T19:06:39.090Z,10.53
2018-08-22T19:09:08.168Z,11.50
2018-08-22T19:11:36.831Z,17.80
2018-08-22T19:14:06.591Z,12.63
2018-08-22T19:16:35.398Z,11.20
2018-08-22T19:19:04.250Z,9.33
2018-08-22T19:21:33.033Z,9.30
2018-08-22T19:24:05.617Z,13.13
2018-08-22T19:26:34.403Z,11.20
2018-08-22T19:29:05.365Z,12.87
2018-08-22T19:31:34.305Z,11.20
2018-08-22T19:34:03.025Z,6.30
2018-08-22T19:36:31.749Z,10.40
2018-08-22T19:39:00.480Z,11.73
2018-08-22T19:41:34.144Z,10.30
2018-08-22T19:44:04.061Z,14.33
2018-08-22T19:46:32.793Z,8.27
2018-08-22T19:49:01.835Z,11.50
2018-08-22T19:51:30.487Z,11.93
2018-08-22T19:54:04.731Z,12.13
2018-08-22T19:56:33.637Z,10.43
2018-08-22T19:59:02.921Z,8.10
2018-08-22T20:01:33.396Z,10.57
2018-08-22T20:04:01.990Z,11.50
2018-08-22T20:06:31.650Z,10.03
2018-08-22T20:09:01.091Z,9.67
2018-08-22T20:11:32.049Z,9.83
2018-08-22T20:14:02.494Z,16.70
2018-08-22T20:16:31.237Z,13.57
2018-08-22T20:19:01.964Z,9.40
2018-08-22T20:21:32.812Z,10.57
2018-08-22T20:24:02.361Z,8.77
2018-08-22T20:26:31.633Z,12.33
2018-08-22T20:29:01.686Z,10.97
2018-08-22T20:31:30.599Z,9.57
2018-08-22T20:34:21.159Z,14.63
2018-08-22T20:36:50.437Z,9.60
2018-08-22T20:39:19.329Z,11.60
2018-08-22T20:41:49.627Z,7.37
2018-08-22T20:44:20.850Z,8.50
2018-08-22T20:46:50.009Z,8.47
2018-08-22T20:49:19.732Z,7.53
2018-08-22T20:51:48.733Z,8.93
2018-08-22T20:54:22.596Z,10.37
2018-08-22T20:56:56.483Z,9.60
2018-08-22T20:59:25.264Z,5.77
2018-08-22T21:01:56.345Z,7.67
2018-08-22T21:04:25.117Z,7.50
2018-08-22T21:06:53.754Z,12.13
2018-08-22T21:09:22.354Z,20.90
2018-08-22T21:11:51.614Z,12.73
2018-08-22T21:14:20.303Z,8.17
2018-08-22T21:16:49.265Z,10.80
2018-08-22T21:19:18.005Z,8.30
2018-08-22T21:21:46.612Z,9.37
2018-08-22T21:24:15.304Z,9.67
2018-08-22T21:26:46.132Z,15.27
2018-08-22T21:29:14.997Z,12.53
2018-08-22T21:31:43.762Z,9.73
2018-08-22T21:34:17.541Z,8.63
2018-08-22T21:36:46.733Z,10.63
2018-08-22T21:39:20.597Z,5.97
2018-08-22T21:41:50.695Z,7.27
2018-08-22T21:44:20.649Z,8.57
2018-08-22T21:47:11.481Z,8.87
2018-08-22T21:49:40.237Z,7.77
2018-08-22T21:52:08.873Z,9.43
2018-08-22T21:54:38.107Z,10.60
2018-08-22T21:57:06.785Z,8.80
2018-08-22T21:59:35.460Z,10.10
2018-08-22T22:02:11.094Z,9.40
2018-08-22T22:04:41.098Z,14.93
2018-08-22T22:07:10.973Z,7.80
2018-08-22T22:09:40.424Z,9.97
2018-08-22T22:12:14.249Z,12.00
2018-08-22T22:14:44.440Z,7.53
2018-08-22T22:17:13.193Z,8.27
2018-08-22T22:19:41.779Z,11.50
2018-08-22T22:22:10.326Z,6.10
2018-08-22T22:24:49.486Z,11.00
2018-08-22T22:27:18.168Z,9.70
2018-08-22T22:29:47.002Z,11.20
2018-08-22T22:32:15.745Z,9.67
2018-08-22T22:34:44.337Z,10.23
2018-08-22T22:37:13.337Z,8.90
2018-08-22T22:39:43.041Z,10.20
2018-08-22T22:42:17.391Z,9.70
2018-08-22T22:44:50.259Z,8.40
2018-08-22T22:47:24.295Z,10.30
2018-08-22T22:49:53.258Z,7.33
2018-08-22T22:52:30.230Z,8.60
2018-08-22T22:55:04.454Z,10.83
2018-08-22T22:57:34.799Z,8.20
2018-08-22T23:00:04.405Z,10.13
2018-08-22T23:02:33.791Z,15.17
2018-08-22T23:05:02.785Z,13.07
2018-08-22T23:07:39.501Z,9.20
2018-08-22T23:10:12.065Z,11.47
2018-08-22T23:12:43.051Z,9.57
2018-08-22T23:15:14.781Z,11.20
2018-08-22T23:17:43.929Z,10.10
2018-08-22T23:20:45.216Z,12.17
2018-08-22T23:23:26.885Z,12.30
2018-08-22T23:25:58.701Z,11.30
2018-08-22T23:28:27.410Z,12.87
2018-08-22T23:30:55.989Z,12.57
2018-08-22T23:33:24.749Z,10.50
2018-08-22T23:35:54.506Z,10.73
2018-08-22T23:38:28.458Z,8.40
2018-08-22T23:40:57.350Z,10.87
2018-08-22T23:43:26.477Z,8.60
2018-08-22T23:45:57.986Z,11.80
2018-08-22T23:48:31.708Z,14.80
2018-08-22T23:51:03.817Z,10.57
2018-08-22T23:53:38.467Z,12.47
2018-08-22T23:56:16.483Z,10.50
2018-08-22T23:58:46.133Z,11.97
